createdAt,value
2023-01-30T00:01:45.616Z,26.70
2023-01-30T00:04:16.040Z,27.80
2023-01-30T00:06:44.037Z,31.70
2023-01-30T00:09:18.509Z,27.70
2023-01-30T00:11:45.274Z,22.90
2023-01-30T00:14:12.064Z,23.40
2023-01-30T00:16:39.009Z,21.20
2023-01-30T00:19:05.831Z,26.40
2023-01-30T00:21:32.574Z,26.30
2023-01-30T00:24:01.172Z,25.60
2023-01-30T00:26:27.963Z,26.10
2023-01-30T00:28:54.741Z,29.50
2023-01-30T00:31:21.994Z,31.90
2023-01-30T00:33:48.886Z,26.00
2023-01-30T00:36:15.671Z,26.90
2023-01-30T00:38:42.485Z,29.50
2023-01-30T00:41:10.990Z,31.40
2023-01-30T00:43:51.746Z,38.60
2023-01-30T00:46:45.238Z,36.30
2023-01-30T00:49:12.391Z,33.20
2023-01-30T00:51:39.350Z,33.90
2023-01-30T00:54:06.259Z,35.10
2023-01-30T00:56:33.014Z,37.90
2023-01-30T00:58:59.816Z,34.10
2023-01-30T01:01:26.893Z,27.20
2023-01-30T01:03:53.671Z,25.90
2023-01-30T01:06:20.453Z,28.10
2023-01-30T01:08:47.234Z,32.30
2023-01-30T01:11:24.633Z,34.30
2023-01-30T01:13:53.738Z,26.50
2023-01-30T01:16:21.718Z,24.50
2023-01-30T01:18:48.996Z,25.60
2023-01-30T01:21:15.964Z,28.40
2023-01-30T01:23:42.979Z,28.70
2023-01-30T01:26:10.627Z,29.10
2023-01-30T01:28:37.441Z,27.10
2023-01-30T01:31:12.187Z,30.50
2023-01-30T01:33:39.491Z,31.60
2023-01-30T01:36:07.656Z,29.20
2023-01-30T01:38:35.098Z,32.20
2023-01-30T01:41:02.026Z,35.50
2023-01-30T01:43:32.894Z,28.90
2023-01-30T01:46:10.302Z,29.20
2023-01-30T01:48:45.092Z,33.10
2023-01-30T01:51:34.914Z,30.60
2023-01-30T01:56:52.028Z,24.70
2023-01-30T01:59:32.215Z,29.90
2023-01-30T02:02:02.170Z,27.60
2023-01-30T02:04:45.429Z,29.40
2023-01-30T02:07:12.386Z,28.90
2023-01-30T02:09:39.240Z,33.30
2023-01-30T02:12:06.181Z,30.80
2023-01-30T02:14:34.597Z,30.50
2023-01-30T02:17:01.387Z,36.00
2023-01-30T02:19:41.062Z,30.50
2023-01-30T02:22:40.899Z,27.30
2023-01-30T02:25:10.225Z,26.10
2023-01-30T02:27:42.205Z,26.10
2023-01-30T02:30:37.774Z,30.10
2023-01-30T02:33:20.884Z,27.30
2023-01-30T02:36:24.754Z,25.80
2023-01-30T02:39:09.002Z,28.80
2023-01-30T02:41:35.732Z,29.70
2023-01-30T02:44:12.639Z,30.60
2023-01-30T02:46:44.242Z,28.60
2023-01-30T02:49:20.798Z,30.60
2023-01-30T02:51:50.384Z,32.60
2023-01-30T02:54:17.518Z,35.00
2023-01-30T02:56:52.770Z,30.60
2023-01-30T02:59:32.119Z,30.80
2023-01-30T03:02:15.881Z,38.30
2023-01-30T03:04:48.503Z,37.60
2023-01-30T03:07:31.954Z,36.60
2023-01-30T03:10:11.367Z,34.40
2023-01-30T03:12:50.280Z,34.00
2023-01-30T03:15:21.827Z,37.60
2023-01-30T03:17:49.238Z,36.40
2023-01-30T03:20:19.184Z,43.00
2023-01-30T03:22:45.919Z,40.50
2023-01-30T03:25:21.904Z,38.40
2023-01-30T03:27:51.690Z,38.00
2023-01-30T03:30:18.841Z,37.40
2023-01-30T03:32:45.886Z,34.60
2023-01-30T03:35:13.099Z,36.10
2023-01-30T03:37:39.926Z,36.40
2023-01-30T03:40:07.610Z,39.30
2023-01-30T03:42:34.376Z,34.80
2023-01-30T03:45:01.185Z,31.70
2023-01-30T03:47:28.207Z,31.80
2023-01-30T03:49:54.912Z,34.70
2023-01-30T03:52:21.918Z,34.20
2023-01-30T03:54:48.653Z,33.70
2023-01-30T03:57:15.431Z,29.90
2023-01-30T03:59:42.209Z,36.00
2023-01-30T04:02:09.077Z,30.60
2023-01-30T04:04:35.982Z,37.70
2023-01-30T04:07:02.815Z,31.70
2023-01-30T04:09:29.597Z,33.50
2023-01-30T04:11:56.470Z,33.10
2023-01-30T04:14:23.247Z,36.90
2023-01-30T04:16:50.069Z,33.30
2023-01-30T04:19:16.916Z,33.20
2023-01-30T04:21:43.767Z,33.50
2023-01-30T04:24:10.551Z,33.70
2023-01-30T04:26:37.342Z,31.10
2023-01-30T04:29:04.173Z,34.60
2023-01-30T04:31:31.029Z,34.30
2023-01-30T04:33:57.846Z,29.10
2023-01-30T04:36:24.981Z,31.60
2023-01-30T04:38:51.805Z,35.50
2023-01-30T04:41:18.556Z,31.20
2023-01-30T04:43:45.360Z,33.80
2023-01-30T04:46:12.171Z,31.00
2023-01-30T04:48:40.203Z,30.30
2023-01-30T04:51:07.199Z,27.60
2023-01-30T04:53:34.121Z,28.10
2023-01-30T04:56:01.007Z,27.70
2023-01-30T04:58:27.726Z,28.40
2023-01-30T05:00:54.573Z,31.70
2023-01-30T05:03:21.463Z,28.10
2023-01-30T05:05:48.817Z,26.80
2023-01-30T05:08:16.231Z,24.80
2023-01-30T05:10:42.983Z,27.50
2023-01-30T05:13:09.765Z,21.90
2023-01-30T05:15:36.522Z,26.40
2023-01-30T05:18:03.515Z,23.80
2023-01-30T05:20:30.344Z,26.40
2023-01-30T05:22:57.103Z,21.30
2023-01-30T05:25:23.900Z,20.80
2023-01-30T05:27:50.594Z,21.00
2023-01-30T05:30:17.761Z,19.30
2023-01-30T05:32:44.590Z,19.50
2023-01-30T05:35:11.376Z,21.50
2023-01-30T05:37:38.180Z,21.70
2023-01-30T05:40:06.419Z,18.80
2023-01-30T05:42:33.404Z,17.80
2023-01-30T05:45:00.264Z,20.20
2023-01-30T05:47:27.164Z,20.90
2023-01-30T05:49:53.950Z,20.30
2023-01-30T05:52:20.746Z,20.90
2023-01-30T05:54:51.194Z,24.10
2023-01-30T05:57:17.964Z,18.30
2023-01-30T05:59:44.762Z,18.90
2023-01-30T06:02:12.139Z,17.90
2023-01-30T06:04:39.005Z,18.10
2023-01-30T06:07:05.816Z,15.30
2023-01-30T06:09:32.628Z,17.90
2023-01-30T06:11:59.326Z,22.90
2023-01-30T06:14:26.061Z,18.50
2023-01-30T06:16:53.117Z,16.20
2023-01-30T06:19:20.179Z,19.30
2023-01-30T06:21:46.946Z,20.20
2023-01-30T06:24:13.812Z,20.90
2023-01-30T06:26:40.629Z,17.40
2023-01-30T06:29:07.419Z,20.00
2023-01-30T06:31:34.234Z,19.60
2023-01-30T06:34:01.002Z,17.00
2023-01-30T06:36:27.899Z,20.90
2023-01-30T06:38:55.267Z,17.30
2023-01-30T06:41:22.047Z,23.60
2023-01-30T06:43:48.937Z,21.80
2023-01-30T06:46:15.806Z,20.30
2023-01-30T06:48:42.647Z,19.80
2023-01-30T06:51:09.437Z,18.20
2023-01-30T06:53:36.315Z,19.00
2023-01-30T06:56:03.121Z,18.00
2023-01-30T06:58:30.074Z,14.70
2023-01-30T07:00:57.509Z,18.10
2023-01-30T07:03:24.752Z,18.60
2023-01-30T07:05:51.716Z,16.10
2023-01-30T07:08:18.843Z,13.50
2023-01-30T07:10:45.729Z,17.30
2023-01-30T07:13:13.423Z,18.10
2023-01-30T07:15:41.141Z,15.10
2023-01-30T07:18:08.290Z,17.30
2023-01-30T07:20:35.139Z,20.40
2023-01-30T07:23:02.402Z,15.10
2023-01-30T07:25:30.254Z,18.80
2023-01-30T07:28:00.622Z,15.40
2023-01-30T07:30:30.416Z,15.30
2023-01-30T07:35:27.032Z,14.50
2023-01-30T07:37:53.969Z,18.10
2023-01-30T07:40:22.189Z,18.10
2023-01-30T07:43:04.932Z,12.10
2023-01-30T07:45:45.213Z,16.00
2023-01-30T07:48:14.675Z,15.10
2023-01-30T07:50:42.279Z,13.00
2023-01-30T07:53:13.045Z,14.00
2023-01-30T07:55:40.524Z,13.90
2023-01-30T07:58:07.590Z,13.10
2023-01-30T08:00:34.491Z,14.90
2023-01-30T08:03:01.676Z,13.90
2023-01-30T08:05:28.552Z,14.80
2023-01-30T08:07:57.003Z,16.70
2023-01-30T08:10:24.145Z,14.60
2023-01-30T08:12:51.735Z,12.30
2023-01-30T08:15:18.906Z,13.00
2023-01-30T08:17:55.382Z,12.70
2023-01-30T08:20:22.388Z,16.00
2023-01-30T08:22:49.235Z,13.70
2023-01-30T08:25:16.261Z,13.40
2023-01-30T08:27:43.065Z,18.70
2023-01-30T08:30:12.121Z,15.90
2023-01-30T08:32:39.004Z,15.00
2023-01-30T08:35:06.259Z,14.90
2023-01-30T08:37:33.114Z,17.00
2023-01-30T08:39:59.976Z,13.00
2023-01-30T08:42:26.836Z,18.00
2023-01-30T08:44:53.723Z,15.10
2023-01-30T08:47:20.532Z,16.50
2023-01-30T08:49:47.321Z,17.60
2023-01-30T08:52:14.219Z,14.40
2023-01-30T08:54:40.988Z,15.10
2023-01-30T08:57:07.947Z,17.40
2023-01-30T08:59:34.831Z,15.70
2023-01-30T09:02:01.665Z,14.60
2023-01-30T09:04:31.720Z,15.60
2023-01-30T09:06:58.745Z,18.50
2023-01-30T09:09:25.564Z,12.50
2023-01-30T09:11:52.623Z,12.70
2023-01-30T09:14:20.032Z,13.60
2023-01-30T09:16:48.312Z,14.30
2023-01-30T09:19:15.400Z,17.60
2023-01-30T09:21:42.767Z,12.50
2023-01-30T09:24:09.528Z,14.30
2023-01-30T09:26:36.367Z,13.00
2023-01-30T09:29:03.244Z,14.00
2023-01-30T09:31:30.059Z,12.60
2023-01-30T09:33:56.979Z,17.10
2023-01-30T09:36:23.714Z,15.60
2023-01-30T09:38:50.461Z,16.30
2023-01-30T09:41:35.664Z,16.40
2023-01-30T09:44:18.253Z,14.40
2023-01-30T09:47:01.025Z,13.70
2023-01-30T09:49:37.568Z,15.10
2023-01-30T09:52:18.300Z,12.60
2023-01-30T09:54:46.302Z,16.60
2023-01-30T09:57:25.948Z,14.00
2023-01-30T10:00:14.028Z,17.10
2023-01-30T10:03:21.365Z,14.20
2023-01-30T10:06:11.554Z,15.00
2023-01-30T10:08:55.731Z,14.80
2023-01-30T10:11:42.679Z,14.50
2023-01-30T10:14:26.011Z,13.30
2023-01-30T10:17:01.341Z,15.60
2023-01-30T10:19:35.728Z,16.10
2023-01-30T10:22:13.250Z,13.60
2023-01-30T10:24:52.328Z,13.00
2023-01-30T10:27:21.350Z,14.60
2023-01-30T10:29:57.208Z,13.80
2023-01-30T10:32:30.677Z,11.90
2023-01-30T10:35:20.386Z,13.70
2023-01-30T10:38:01.149Z,15.30
2023-01-30T10:40:41.026Z,12.90
2023-01-30T10:45:57.002Z,11.50
2023-01-30T10:48:49.688Z,14.10
2023-01-30T10:51:25.979Z,14.00
2023-01-30T10:54:03.484Z,15.00
2023-01-30T10:56:44.100Z,12.30
2023-01-30T10:59:31.321Z,12.10
2023-01-30T11:02:26.931Z,14.50
2023-01-30T11:04:59.523Z,16.60
2023-01-30T11:07:31.051Z,12.90
2023-01-30T11:09:58.862Z,13.30
2023-01-30T11:12:26.421Z,17.60
2023-01-30T11:15:01.321Z,15.10
2023-01-30T11:17:35.897Z,15.70
2023-01-30T11:20:17.567Z,15.20
2023-01-30T11:23:24.865Z,16.90
2023-01-30T11:26:10.117Z,14.30
2023-01-30T11:28:44.182Z,13.00
2023-01-30T11:31:31.514Z,16.30
2023-01-30T11:34:16.075Z,16.50
2023-01-30T11:36:42.955Z,14.50
2023-01-30T11:39:12.703Z,14.70
2023-01-30T11:41:44.575Z,14.80
2023-01-30T11:44:11.799Z,13.10
2023-01-30T11:46:40.993Z,13.80
2023-01-30T11:49:46.899Z,13.10
2023-01-30T11:52:10.607Z,13.20
2023-01-30T11:54:44.579Z,15.40
2023-01-30T11:57:14.743Z,17.60
2023-01-30T11:59:47.992Z,16.10
2023-01-30T12:02:21.662Z,15.20
2023-01-30T12:04:54.080Z,14.90
2023-01-30T12:07:26.341Z,14.70
2023-01-30T12:09:54.269Z,16.40
2023-01-30T12:12:27.032Z,15.00
2023-01-30T12:14:58.126Z,16.10
2023-01-30T12:17:38.794Z,18.10
2023-01-30T12:20:20.238Z,13.80
2023-01-30T12:23:00.596Z,15.20
2023-01-30T12:25:41.357Z,17.20
2023-01-30T12:28:45.290Z,18.40
2023-01-30T12:31:21.239Z,17.50
2023-01-30T12:33:49.326Z,16.00
2023-01-30T12:36:35.965Z,17.50
2023-01-30T12:39:14.514Z,16.00
2023-01-30T12:42:01.133Z,16.70
2023-01-30T12:44:57.927Z,16.30
2023-01-30T12:47:46.303Z,14.30
2023-01-30T12:50:36.954Z,15.20
2023-01-30T12:53:06.601Z,16.90
2023-01-30T12:55:53.276Z,17.70
2023-01-30T12:58:28.714Z,16.80
2023-01-30T13:01:15.343Z,17.90
2023-01-30T13:04:08.887Z,18.00
2023-01-30T13:06:59.641Z,16.90
2023-01-30T13:10:10.055Z,15.80
2023-01-30T13:12:59.761Z,16.30
2023-01-30T13:15:42.327Z,16.50
2023-01-30T13:18:16.225Z,15.80
2023-01-30T13:21:00.572Z,15.20
2023-01-30T13:23:36.942Z,16.40
2023-01-30T13:26:14.117Z,15.20
2023-01-30T13:28:53.564Z,16.90
2023-01-30T13:31:24.810Z,17.10
2023-01-30T13:34:07.220Z,14.80
2023-01-30T13:36:39.873Z,14.70
2023-01-30T13:39:15.592Z,16.00
2023-01-30T13:41:48.854Z,15.10
2023-01-30T13:44:32.013Z,14.60
2023-01-30T13:47:23.049Z,15.70
2023-01-30T13:49:49.790Z,16.30
2023-01-30T13:52:22.602Z,18.80
2023-01-30T13:54:55.206Z,20.00
2023-01-30T13:57:29.767Z,14.50
2023-01-30T14:00:26.124Z,16.20
2023-01-30T14:03:23.106Z,14.30
2023-01-30T14:05:57.438Z,13.80
2023-01-30T14:08:27.086Z,15.60
2023-01-30T14:10:56.341Z,15.20
2023-01-30T14:13:25.599Z,15.00
2023-01-30T14:16:02.586Z,16.70
2023-01-30T14:18:38.872Z,15.60
2023-01-30T14:21:22.677Z,15.20
2023-01-30T14:24:01.909Z,18.00
2023-01-30T14:27:00.566Z,16.80
2023-01-30T14:29:41.599Z,15.90
2023-01-30T14:32:14.528Z,15.80
2023-01-30T14:34:43.485Z,14.80
2023-01-30T14:37:38.095Z,14.90
2023-01-30T14:40:27.509Z,16.60
2023-01-30T14:43:16.975Z,13.60
2023-01-30T14:46:03.299Z,17.50
2023-01-30T14:48:53.565Z,16.70
2023-01-30T14:51:40.173Z,16.20
2023-01-30T14:54:13.527Z,17.70
2023-01-30T14:56:45.543Z,16.10
2023-01-30T14:59:18.142Z,15.60
2023-01-30T15:01:58.905Z,18.10
2023-01-30T15:04:45.648Z,18.90
2023-01-30T15:07:18.721Z,17.20
2023-01-30T15:09:58.811Z,17.40
2023-01-30T15:12:28.448Z,16.90
2023-01-30T15:15:01.316Z,17.60
2023-01-30T15:17:58.233Z,15.20
2023-01-30T15:20:57.789Z,16.20
2023-01-30T15:23:41.403Z,14.70
2023-01-30T15:26:21.883Z,15.00
2023-01-30T15:29:15.540Z,14.00
2023-01-30T15:31:59.596Z,12.90
2023-01-30T15:34:31.673Z,14.60
2023-01-30T15:36:58.775Z,17.10
2023-01-30T15:39:29.283Z,16.80
2023-01-30T15:42:05.542Z,17.30
2023-01-30T15:44:52.264Z,13.30
2023-01-30T15:47:24.625Z,13.80
2023-01-30T15:50:03.325Z,14.30
2023-01-30T15:52:46.540Z,14.50
2023-01-30T15:55:23.980Z,14.30
2023-01-30T15:57:57.124Z,18.80
2023-01-30T16:00:33.482Z,15.20
2023-01-30T16:03:02.446Z,16.70
2023-01-30T16:05:29.551Z,13.80
2023-01-30T16:07:59.106Z,16.00
2023-01-30T16:10:30.512Z,15.70
2023-01-30T16:12:58.669Z,16.40
2023-01-30T16:15:33.304Z,14.30
2023-01-30T16:18:07.602Z,16.30
2023-01-30T16:21:00.281Z,13.50
2023-01-30T16:23:30.110Z,13.80
2023-01-30T16:25:57.558Z,14.30
2023-01-30T16:28:26.434Z,18.50
2023-01-30T16:31:09.102Z,15.30
2023-01-30T16:33:36.814Z,14.60
2023-01-30T16:36:06.421Z,13.60
2023-01-30T16:38:39.779Z,16.40
2023-01-30T16:41:06.674Z,15.00
2023-01-30T16:43:34.429Z,15.40
2023-01-30T16:46:28.375Z,15.30
2023-01-30T16:49:03.614Z,14.00
2023-01-30T16:51:30.775Z,14.20
2023-01-30T16:54:02.341Z,15.00
2023-01-30T16:56:33.295Z,16.50
2023-01-30T16:59:01.880Z,15.50
2023-01-30T17:01:41.515Z,16.00
2023-01-30T17:04:18.926Z,18.00
2023-01-30T17:06:53.240Z,16.90
2023-01-30T17:09:34.948Z,15.70
2023-01-30T17:12:02.168Z,17.40
2023-01-30T17:14:33.051Z,15.80
2023-01-30T17:17:04.883Z,18.60
2023-01-30T17:19:31.778Z,16.80
2023-01-30T17:22:00.099Z,14.50
2023-01-30T17:24:27.150Z,13.70
2023-01-30T17:27:00.311Z,14.40
2023-01-30T17:29:43.681Z,14.40
2023-01-30T17:32:13.837Z,12.10
2023-01-30T17:34:41.595Z,15.60
2023-01-30T17:37:26.642Z,14.50
2023-01-30T17:39:53.507Z,14.40
2023-01-30T17:42:22.440Z,15.10
2023-01-30T17:44:49.861Z,14.40
2023-01-30T17:47:16.912Z,15.60
2023-01-30T17:49:43.992Z,11.80
2023-01-30T17:52:13.737Z,14.20
2023-01-30T17:54:41.019Z,12.20
2023-01-30T17:57:11.992Z,13.70
2023-01-30T17:59:38.781Z,13.50
2023-01-30T18:02:06.910Z,10.80
2023-01-30T18:04:33.701Z,11.00
2023-01-30T18:07:04.840Z,11.10
2023-01-30T18:09:32.188Z,10.50
2023-01-30T18:11:59.127Z,10.90
2023-01-30T18:14:25.878Z,12.60
2023-01-30T18:16:52.949Z,11.60
2023-01-30T18:19:24.049Z,12.80
2023-01-30T18:21:51.160Z,11.20
2023-01-30T18:24:18.613Z,11.80
2023-01-30T18:26:45.958Z,10.80
2023-01-30T18:29:13.452Z,12.20
2023-01-30T18:31:41.159Z,10.00
2023-01-30T18:34:09.998Z,13.70
2023-01-30T18:36:37.844Z,12.20
2023-01-30T18:39:05.944Z,12.90
2023-01-30T18:41:33.123Z,11.90
2023-01-30T18:44:02.530Z,13.60
2023-01-30T18:46:30.459Z,13.50
2023-01-30T18:48:58.133Z,10.10
2023-01-30T18:51:30.082Z,9.80
2023-01-30T18:53:58.356Z,10.60
2023-01-30T18:56:31.695Z,11.80
2023-01-30T18:59:02.735Z,9.80
2023-01-30T19:01:32.441Z,10.80
2023-01-30T19:04:01.357Z,11.50
2023-01-30T19:06:29.512Z,12.00
2023-01-30T19:08:57.290Z,9.40
2023-01-30T19:11:38.056Z,12.50
2023-01-30T19:14:05.319Z,9.20
2023-01-30T19:16:33.642Z,10.70
2023-01-30T19:19:00.919Z,9.50
2023-01-30T19:21:28.406Z,7.80
2023-01-30T19:23:56.462Z,6.30
2023-01-30T19:26:24.824Z,9.60
2023-01-30T19:28:52.323Z,9.40
2023-01-30T19:31:21.230Z,7.70
2023-01-30T19:34:02.781Z,9.70
2023-01-30T19:36:31.938Z,6.20
2023-01-30T19:38:59.918Z,8.10
2023-01-30T19:41:29.428Z,8.90
2023-01-30T19:43:58.557Z,11.10
2023-01-30T19:46:25.798Z,9.50
2023-01-30T19:48:52.934Z,9.30
2023-01-30T19:51:28.035Z,10.10
2023-01-30T19:53:57.615Z,11.80
2023-01-30T19:56:25.722Z,9.50
2023-01-30T19:58:55.123Z,12.10
2023-01-30T20:01:24.179Z,10.50
2023-01-30T20:03:51.314Z,11.60
2023-01-30T20:06:27.940Z,11.30
2023-01-30T20:09:00.099Z,13.00
2023-01-30T20:11:27.844Z,13.90
2023-01-30T20:13:54.926Z,12.20
2023-01-30T20:16:25.580Z,11.40
2023-01-30T20:19:00.983Z,10.90
2023-01-30T20:21:29.649Z,10.90
2023-01-30T20:23:57.291Z,11.90
2023-01-30T20:26:28.289Z,10.30
2023-01-30T20:28:56.265Z,11.60
2023-01-30T20:31:25.605Z,13.90
2023-01-30T20:33:55.839Z,9.10
2023-01-30T20:36:23.316Z,8.70
2023-01-30T20:38:50.692Z,10.00
2023-01-30T20:41:22.587Z,9.70
2023-01-30T20:43:52.475Z,11.20
2023-01-30T20:48:48.817Z,6.80
2023-01-30T20:51:18.479Z,9.20
2023-01-30T20:53:54.010Z,8.30
2023-01-30T20:56:22.488Z,9.80
2023-01-30T20:58:49.701Z,8.60
2023-01-30T21:01:18.935Z,8.60
2023-01-30T21:03:50.718Z,10.00
2023-01-30T21:06:42.976Z,8.20
2023-01-30T21:09:08.193Z,8.20
2023-01-30T21:11:35.479Z,9.10
2023-01-30T21:14:02.304Z,9.70
2023-01-30T21:16:31.067Z,8.70
2023-01-30T21:19:04.236Z,10.30
2023-01-30T21:21:38.185Z,7.50
2023-01-30T21:24:08.577Z,9.40
2023-01-30T21:26:38.026Z,9.20
2023-01-30T21:29:07.236Z,10.80
2023-01-30T21:31:36.022Z,12.30
2023-01-30T21:34:03.606Z,8.50
2023-01-30T21:36:31.480Z,8.80
2023-01-30T21:39:12.195Z,10.30
2023-01-30T21:41:55.757Z,9.10
2023-01-30T21:44:37.159Z,9.90
2023-01-30T21:47:05.963Z,8.60
2023-01-30T21:49:33.346Z,9.00
2023-01-30T21:52:00.226Z,8.60
2023-01-30T21:54:27.179Z,10.60
2023-01-30T21:56:53.963Z,9.70
2023-01-30T21:59:20.799Z,11.30
2023-01-30T22:01:48.755Z,8.80
2023-01-30T22:04:16.224Z,12.20
2023-01-30T22:06:44.110Z,11.70
2023-01-30T22:09:15.481Z,11.50
2023-01-30T22:11:43.030Z,10.80
2023-01-30T22:14:13.446Z,13.70
2023-01-30T22:16:41.160Z,10.90
2023-01-30T22:19:08.478Z,10.00
2023-01-30T22:21:40.501Z,12.20
2023-01-30T22:24:09.353Z,9.70
2023-01-30T22:26:36.670Z,9.00
2023-01-30T22:29:05.378Z,11.40
2023-01-30T22:31:35.073Z,14.10
2023-01-30T22:34:03.514Z,10.20
2023-01-30T22:36:33.391Z,10.80
2023-01-30T22:41:28.374Z,11.40
2023-01-30T22:43:59.699Z,15.50
2023-01-30T22:46:30.180Z,12.30
2023-01-30T22:48:58.440Z,14.90
2023-01-30T22:51:30.167Z,14.70
2023-01-30T22:54:00.759Z,11.00
2023-01-30T22:56:37.035Z,11.20
2023-01-30T22:59:04.821Z,13.00
2023-01-30T23:01:34.646Z,10.50
2023-01-30T23:06:31.558Z,9.50
2023-01-30T23:09:00.007Z,10.80
2023-01-30T23:11:41.909Z,7.40
2023-01-30T23:14:11.630Z,12.70
2023-01-30T23:16:40.620Z,10.10
2023-01-30T23:19:08.772Z,14.60
2023-01-30T23:21:41.839Z,10.10
2023-01-30T23:24:15.047Z,10.20
2023-01-30T23:26:45.386Z,11.80
2023-01-30T23:29:15.027Z,12.10
2023-01-30T23:31:43.421Z,14.30
2023-01-30T23:34:19.630Z,14.30
2023-01-30T23:36:46.985Z,12.00
2023-01-30T23:39:14.677Z,11.60
2023-01-30T23:41:42.656Z,12.50
2023-01-30T23:44:09.984Z,10.40
2023-01-30T23:46:41.946Z,10.10
2023-01-30T23:49:11.656Z,8.80
2023-01-30T23:51:40.820Z,11.80
2023-01-30T23:54:08.710Z,9.50
2023-01-30T23:56:37.689Z,11.20
2023-01-30T23:59:05.726Z,12.30
